Terminal Aerodrome Forecast
Issued by NWS Mt. Holly, NJ

Home | Current Version | Previous Version | Text Only | Print | Product List | Glossary On
Versions: 1 2 3 4 5 6 7 8 9 10 11 12 13 14 15 16 17 18 19 20 21 22 23 24 25 26 27 28 29 30 31 32 33 34 35 36 37 38 39 40 41
000
FTAK31 PANC 201358 AAA
TAFABE
TAF AMD
PABE 201358Z 2014/2112 22012KT 5SM -RA BR OVC004
     FM201500 22011KT P6SM BKN015 OVC025
     FM201800 VRB06KT P6SM VCSH SCT015 BKN035
     FM210600 02007KT P6SM OVC050=

USA.gov is the U.S. government's official web portal to all federal, state and local government web resources and services.